sensor_id;sensor_type;location;lat;lon;timestamp;temperature;humidity
59098;DHT22;44883;52.760;6.610;2022-12-20T00:02:07;8.80;99.90
59098;DHT22;44883;52.760;6.610;2022-12-20T00:04:33;8.70;99.90
59098;DHT22;44883;52.760;6.610;2022-12-20T00:06:58;8.80;99.90
59098;DHT22;44883;52.760;6.610;2022-12-20T00:09:24;8.80;99.90
59098;DHT22;44883;52.760;6.610;2022-12-20T00:11:50;8.70;99.90
59098;DHT22;44883;52.760;6.610;2022-12-20T00:14:16;8.80;99.90
59098;DHT22;44883;52.760;6.610;2022-12-20T00:16:41;8.80;99.90
59098;DHT22;44883;52.760;6.610;2022-12-20T00:19:09;8.80;99.90
59098;DHT22;44883;52.760;6.610;2022-12-20T00:21:35;8.80;99.90
59098;DHT22;44883;52.760;6.610;2022-12-20T00:24:01;8.80;99.90
59098;DHT22;44883;52.760;6.610;2022-12-20T00:26:29;8.90;99.90
59098;DHT22;44883;52.760;6.610;2022-12-20T00:28:56;8.90;99.90
59098;DHT22;44883;52.760;6.610;2022-12-20T00:31:23;8.90;99.90
59098;DHT22;44883;52.760;6.610;2022-12-20T00:33:51;8.90;99.90
59098;DHT22;44883;52.760;6.610;2022-12-20T00:36:18;9.00;99.90
59098;DHT22;44883;52.760;6.610;2022-12-20T00:38:48;9.00;99.90
59098;DHT22;44883;52.760;6.610;2022-12-20T00:41:20;9.00;99.90
59098;DHT22;44883;52.760;6.610;2022-12-20T00:43:46;9.00;99.90
59098;DHT22;44883;52.760;6.610;2022-12-20T00:46:13;9.00;99.90
59098;DHT22;44883;52.760;6.610;2022-12-20T00:48:39;9.10;99.90
59098;DHT22;44883;52.760;6.610;2022-12-20T00:51:09;9.10;99.90
59098;DHT22;44883;52.760;6.610;2022-12-20T00:53:36;9.00;99.90
59098;DHT22;44883;52.760;6.610;2022-12-20T00:56:03;9.00;99.90
59098;DHT22;44883;52.760;6.610;2022-12-20T00:58:29;9.00;99.90
59098;DHT22;44883;52.760;6.610;2022-12-20T01:00:56;9.00;99.90
59098;DHT22;44883;52.760;6.610;2022-12-20T01:03:21;8.90;99.90
59098;DHT22;44883;52.760;6.610;2022-12-20T01:05:55;9.00;99.90
59098;DHT22;44883;52.760;6.610;2022-12-20T01:08:22;9.00;99.90
59098;DHT22;44883;52.760;6.610;2022-12-20T01:11:02;9.00;99.90
59098;DHT22;44883;52.760;6.610;2022-12-20T01:13:29;9.00;99.90
59098;DHT22;44883;52.760;6.610;2022-12-20T01:15:54;9.00;99.90
59098;DHT22;44883;52.760;6.610;2022-12-20T01:18:20;8.90;99.90
59098;DHT22;44883;52.760;6.610;2022-12-20T01:20:46;8.90;99.90
59098;DHT22;44883;52.760;6.610;2022-12-20T01:23:11;8.90;99.90
59098;DHT22;44883;52.760;6.610;2022-12-20T01:25:37;9.00;99.90
59098;DHT22;44883;52.760;6.610;2022-12-20T01:28:03;8.90;99.90
59098;DHT22;44883;52.760;6.610;2022-12-20T01:30:28;8.90;99.90
59098;DHT22;44883;52.760;6.610;2022-12-20T01:32:54;9.00;99.90
59098;DHT22;44883;52.760;6.610;2022-12-20T01:35:20;9.00;99.90
59098;DHT22;44883;52.760;6.610;2022-12-20T01:37:45;9.00;99.90
59098;DHT22;44883;52.760;6.610;2022-12-20T01:40:11;9.00;99.90
59098;DHT22;44883;52.760;6.610;2022-12-20T01:42:36;9.00;99.90
59098;DHT22;44883;52.760;6.610;2022-12-20T01:45:07;9.00;99.90
59098;DHT22;44883;52.760;6.610;2022-12-20T01:47:33;9.00;99.90
59098;DHT22;44883;52.760;6.610;2022-12-20T01:50:02;9.10;99.90
59098;DHT22;44883;52.760;6.610;2022-12-20T01:52:36;9.00;99.90
59098;DHT22;44883;52.760;6.610;2022-12-20T01:55:08;9.10;99.90
59098;DHT22;44883;52.760;6.610;2022-12-20T01:57:43;9.00;99.90
59098;DHT22;44883;52.760;6.610;2022-12-20T02:00:11;9.00;99.90
59098;DHT22;44883;52.760;6.610;2022-12-20T02:02:37;9.00;99.90
59098;DHT22;44883;52.760;6.610;2022-12-20T02:05:04;9.10;99.90
59098;DHT22;44883;52.760;6.610;2022-12-20T02:07:31;9.10;99.90
59098;DHT22;44883;52.760;6.610;2022-12-20T02:09:59;9.10;99.90
59098;DHT22;44883;52.760;6.610;2022-12-20T02:12:29;9.20;99.90
59098;DHT22;44883;52.760;6.610;2022-12-20T02:15:11;9.20;99.90
59098;DHT22;44883;52.760;6.610;2022-12-20T02:25:45;9.20;99.90
59098;DHT22;44883;52.760;6.610;2022-12-20T02:31:06;9.30;99.90
59098;DHT22;44883;52.760;6.610;2022-12-20T02:33:32;9.20;99.90
59098;DHT22;44883;52.760;6.610;2022-12-20T02:35:58;9.30;99.90
59098;DHT22;44883;52.760;6.610;2022-12-20T02:40:57;9.30;99.90
59098;DHT22;44883;52.760;6.610;2022-12-20T02:43:23;9.30;99.90
59098;DHT22;44883;52.760;6.610;2022-12-20T02:46:23;9.30;99.90
59098;DHT22;44883;52.760;6.610;2022-12-20T02:48:51;9.30;99.90
59098;DHT22;44883;52.760;6.610;2022-12-20T02:51:19;9.20;99.90
59098;DHT22;44883;52.760;6.610;2022-12-20T02:53:47;9.30;99.90
59098;DHT22;44883;52.760;6.610;2022-12-20T02:57:04;9.20;99.90
59098;DHT22;44883;52.760;6.610;2022-12-20T02:59:28;9.10;99.90
59098;DHT22;44883;52.760;6.610;2022-12-20T03:01:55;9.20;99.90
59098;DHT22;44883;52.760;6.610;2022-12-20T03:04:25;9.20;99.90
59098;DHT22;44883;52.760;6.610;2022-12-20T03:06:55;9.20;99.90
59098;DHT22;44883;52.760;6.610;2022-12-20T03:09:21;9.10;99.90
59098;DHT22;44883;52.760;6.610;2022-12-20T03:11:47;9.10;99.90
59098;DHT22;44883;52.760;6.610;2022-12-20T03:14:12;9.10;99.90
59098;DHT22;44883;52.760;6.610;2022-12-20T03:16:38;9.10;99.90
59098;DHT22;44883;52.760;6.610;2022-12-20T03:19:03;9.10;99.90
59098;DHT22;44883;52.760;6.610;2022-12-20T03:21:29;9.10;99.90
59098;DHT22;44883;52.760;6.610;2022-12-20T03:23:55;9.10;99.90
59098;DHT22;44883;52.760;6.610;2022-12-20T03:26:20;9.10;99.90
59098;DHT22;44883;52.760;6.610;2022-12-20T03:28:46;9.10;99.90
59098;DHT22;44883;52.760;6.610;2022-12-20T03:31:12;9.20;99.90
59098;DHT22;44883;52.760;6.610;2022-12-20T03:33:37;9.10;99.90
59098;DHT22;44883;52.760;6.610;2022-12-20T03:36:03;9.20;99.90
59098;DHT22;44883;52.760;6.610;2022-12-20T03:38:29;9.20;99.90
59098;DHT22;44883;52.760;6.610;2022-12-20T03:40:54;9.10;99.90
59098;DHT22;44883;52.760;6.610;2022-12-20T03:43:20;9.20;99.90
59098;DHT22;44883;52.760;6.610;2022-12-20T03:45:46;9.10;99.90
59098;DHT22;44883;52.760;6.610;2022-12-20T03:48:11;9.20;99.90
59098;DHT22;44883;52.760;6.610;2022-12-20T03:50:37;9.10;99.90
59098;DHT22;44883;52.760;6.610;2022-12-20T03:53:02;9.10;99.90
59098;DHT22;44883;52.760;6.610;2022-12-20T03:55:28;9.20;99.90
59098;DHT22;44883;52.760;6.610;2022-12-20T03:57:54;9.20;99.90
59098;DHT22;44883;52.760;6.610;2022-12-20T04:00:19;9.20;99.90
59098;DHT22;44883;52.760;6.610;2022-12-20T04:02:45;9.30;99.90
59098;DHT22;44883;52.760;6.610;2022-12-20T04:05:11;9.30;99.90
59098;DHT22;44883;52.760;6.610;2022-12-20T04:07:37;9.30;99.90
59098;DHT22;44883;52.760;6.610;2022-12-20T04:10:03;9.30;99.90
59098;DHT22;44883;52.760;6.610;2022-12-20T04:12:28;9.30;99.90
59098;DHT22;44883;52.760;6.610;2022-12-20T04:14:54;9.20;99.90
59098;DHT22;44883;52.760;6.610;2022-12-20T04:17:20;9.30;99.90
59098;DHT22;44883;52.760;6.610;2022-12-20T04:19:45;9.20;99.90
59098;DHT22;44883;52.760;6.610;2022-12-20T04:22:11;9.30;99.90
59098;DHT22;44883;52.760;6.610;2022-12-20T04:24:36;9.30;99.90
59098;DHT22;44883;52.760;6.610;2022-12-20T04:27:02;9.20;99.90
59098;DHT22;44883;52.760;6.610;2022-12-20T04:29:28;9.30;99.90
59098;DHT22;44883;52.760;6.610;2022-12-20T04:31:54;9.30;99.90
59098;DHT22;44883;52.760;6.610;2022-12-20T04:34:19;9.30;99.90
59098;DHT22;44883;52.760;6.610;2022-12-20T04:36:45;9.30;99.90
59098;DHT22;44883;52.760;6.610;2022-12-20T04:39:10;9.30;99.90
59098;DHT22;44883;52.760;6.610;2022-12-20T04:41:36;9.30;99.90
59098;DHT22;44883;52.760;6.610;2022-12-20T04:44:02;9.20;99.90
59098;DHT22;44883;52.760;6.610;2022-12-20T04:46:27;9.20;99.90
59098;DHT22;44883;52.760;6.610;2022-12-20T04:48:53;9.20;99.90
59098;DHT22;44883;52.760;6.610;2022-12-20T04:51:19;9.20;99.90
59098;DHT22;44883;52.760;6.610;2022-12-20T04:53:44;9.30;99.90
59098;DHT22;44883;52.760;6.610;2022-12-20T04:58:43;9.40;99.90
59098;DHT22;44883;52.760;6.610;2022-12-20T05:01:09;9.40;99.90
59098;DHT22;44883;52.760;6.610;2022-12-20T05:03:35;9.50;99.90
59098;DHT22;44883;52.760;6.610;2022-12-20T05:06:01;9.50;99.90
59098;DHT22;44883;52.760;6.610;2022-12-20T05:08:26;9.50;99.90
59098;DHT22;44883;52.760;6.610;2022-12-20T05:10:52;9.50;99.90
59098;DHT22;44883;52.760;6.610;2022-12-20T05:13:18;9.50;99.90
59098;DHT22;44883;52.760;6.610;2022-12-20T05:15:43;9.60;99.90
59098;DHT22;44883;52.760;6.610;2022-12-20T05:18:09;9.60;99.90
59098;DHT22;44883;52.760;6.610;2022-12-20T05:20:35;9.60;99.90
59098;DHT22;44883;52.760;6.610;2022-12-20T05:23:01;9.60;99.90
59098;DHT22;44883;52.760;6.610;2022-12-20T05:25:48;9.60;99.90
59098;DHT22;44883;52.760;6.610;2022-12-20T05:28:35;9.60;99.90
59098;DHT22;44883;52.760;6.610;2022-12-20T05:31:01;9.70;99.90
59098;DHT22;44883;52.760;6.610;2022-12-20T05:33:27;9.70;99.90
59098;DHT22;44883;52.760;6.610;2022-12-20T05:35:53;9.70;99.90
59098;DHT22;44883;52.760;6.610;2022-12-20T05:38:19;9.70;99.90
59098;DHT22;44883;52.760;6.610;2022-12-20T05:40:47;9.70;99.90
59098;DHT22;44883;52.760;6.610;2022-12-20T05:43:14;9.80;99.90
59098;DHT22;44883;52.760;6.610;2022-12-20T05:45:43;9.70;99.90
59098;DHT22;44883;52.760;6.610;2022-12-20T05:48:09;9.70;99.90
59098;DHT22;44883;52.760;6.610;2022-12-20T05:50:35;9.80;99.90
59098;DHT22;44883;52.760;6.610;2022-12-20T05:53:00;9.80;99.90
59098;DHT22;44883;52.760;6.610;2022-12-20T05:55:26;9.80;99.90
59098;DHT22;44883;52.760;6.610;2022-12-20T05:57:51;9.80;99.90
59098;DHT22;44883;52.760;6.610;2022-12-20T06:00:17;9.70;99.90
59098;DHT22;44883;52.760;6.610;2022-12-20T06:02:42;9.80;99.90
59098;DHT22;44883;52.760;6.610;2022-12-20T06:05:08;9.80;99.90
59098;DHT22;44883;52.760;6.610;2022-12-20T06:07:34;9.80;99.90
59098;DHT22;44883;52.760;6.610;2022-12-20T06:09:59;9.80;99.90
59098;DHT22;44883;52.760;6.610;2022-12-20T06:12:25;9.70;99.90
59098;DHT22;44883;52.760;6.610;2022-12-20T06:14:51;9.80;99.90
59098;DHT22;44883;52.760;6.610;2022-12-20T06:17:17;9.90;99.90
59098;DHT22;44883;52.760;6.610;2022-12-20T06:19:44;9.90;99.90
59098;DHT22;44883;52.760;6.610;2022-12-20T06:22:10;9.90;99.90
59098;DHT22;44883;52.760;6.610;2022-12-20T06:24:36;10.00;99.90
59098;DHT22;44883;52.760;6.610;2022-12-20T06:27:02;10.00;99.90
59098;DHT22;44883;52.760;6.610;2022-12-20T06:29:28;10.00;99.90
59098;DHT22;44883;52.760;6.610;2022-12-20T06:31:54;10.00;99.90
59098;DHT22;44883;52.760;6.610;2022-12-20T06:34:20;10.00;99.90
59098;DHT22;44883;52.760;6.610;2022-12-20T06:36:46;10.00;99.90
59098;DHT22;44883;52.760;6.610;2022-12-20T06:39:12;10.00;99.90
59098;DHT22;44883;52.760;6.610;2022-12-20T06:41:39;10.00;99.90
59098;DHT22;44883;52.760;6.610;2022-12-20T06:44:05;10.00;99.90
59098;DHT22;44883;52.760;6.610;2022-12-20T06:46:31;10.00;99.90
59098;DHT22;44883;52.760;6.610;2022-12-20T06:48:56;10.00;99.90
59098;DHT22;44883;52.760;6.610;2022-12-20T06:51:22;9.90;99.90
59098;DHT22;44883;52.760;6.610;2022-12-20T06:53:48;9.90;99.90
59098;DHT22;44883;52.760;6.610;2022-12-20T06:56:13;9.90;99.90
59098;DHT22;44883;52.760;6.610;2022-12-20T06:58:39;9.80;99.90
59098;DHT22;44883;52.760;6.610;2022-12-20T07:01:05;9.80;99.90
59098;DHT22;44883;52.760;6.610;2022-12-20T07:03:30;9.80;99.90
59098;DHT22;44883;52.760;6.610;2022-12-20T07:05:56;9.90;99.90
59098;DHT22;44883;52.760;6.610;2022-12-20T07:08:22;9.80;99.90
59098;DHT22;44883;52.760;6.610;2022-12-20T07:10:48;9.80;99.90
59098;DHT22;44883;52.760;6.610;2022-12-20T07:13:14;9.90;99.90
59098;DHT22;44883;52.760;6.610;2022-12-20T07:15:40;9.80;99.90
59098;DHT22;44883;52.760;6.610;2022-12-20T07:18:05;9.90;99.90
59098;DHT22;44883;52.760;6.610;2022-12-20T07:20:31;9.90;99.90
59098;DHT22;44883;52.760;6.610;2022-12-20T07:22:57;9.90;99.90
59098;DHT22;44883;52.760;6.610;2022-12-20T07:25:23;9.90;99.90
59098;DHT22;44883;52.760;6.610;2022-12-20T07:27:50;9.90;99.90
59098;DHT22;44883;52.760;6.610;2022-12-20T07:30:17;9.90;99.90
59098;DHT22;44883;52.760;6.610;2022-12-20T07:32:43;9.90;99.90
59098;DHT22;44883;52.760;6.610;2022-12-20T07:35:10;9.90;99.90
59098;DHT22;44883;52.760;6.610;2022-12-20T07:37:36;9.90;99.90
59098;DHT22;44883;52.760;6.610;2022-12-20T07:40:02;9.90;99.90
59098;DHT22;44883;52.760;6.610;2022-12-20T07:42:28;9.90;99.90
59098;DHT22;44883;52.760;6.610;2022-12-20T07:44:53;9.90;99.90
59098;DHT22;44883;52.760;6.610;2022-12-20T07:47:19;9.80;99.90
59098;DHT22;44883;52.760;6.610;2022-12-20T07:49:45;9.90;99.90
59098;DHT22;44883;52.760;6.610;2022-12-20T07:52:12;9.90;99.90
59098;DHT22;44883;52.760;6.610;2022-12-20T07:54:45;9.90;99.90
59098;DHT22;44883;52.760;6.610;2022-12-20T07:57:17;9.80;99.90
59098;DHT22;44883;52.760;6.610;2022-12-20T07:59:52;9.90;99.90
59098;DHT22;44883;52.760;6.610;2022-12-20T08:03:06;9.80;99.90
59098;DHT22;44883;52.760;6.610;2022-12-20T08:05:11;9.80;99.90
59098;DHT22;44883;52.760;6.610;2022-12-20T08:07:39;9.80;99.90
59098;DHT22;44883;52.760;6.610;2022-12-20T08:10:08;9.90;99.90
59098;DHT22;44883;52.760;6.610;2022-12-20T08:12:35;9.80;99.90
59098;DHT22;44883;52.760;6.610;2022-12-20T08:15:02;9.90;99.90
59098;DHT22;44883;52.760;6.610;2022-12-20T08:17:28;9.90;99.90
59098;DHT22;44883;52.760;6.610;2022-12-20T08:19:54;9.90;99.90
59098;DHT22;44883;52.760;6.610;2022-12-20T08:22:21;10.00;99.90
59098;DHT22;44883;52.760;6.610;2022-12-20T08:24:47;9.90;99.90
59098;DHT22;44883;52.760;6.610;2022-12-20T08:27:13;10.00;99.90
59098;DHT22;44883;52.760;6.610;2022-12-20T08:29:39;10.00;99.90
59098;DHT22;44883;52.760;6.610;2022-12-20T08:32:05;10.00;99.90
59098;DHT22;44883;52.760;6.610;2022-12-20T08:34:31;9.90;99.90
59098;DHT22;44883;52.760;6.610;2022-12-20T08:36:57;9.90;99.90
59098;DHT22;44883;52.760;6.610;2022-12-20T08:39:22;9.90;99.90
59098;DHT22;44883;52.760;6.610;2022-12-20T08:41:48;10.00;99.90
59098;DHT22;44883;52.760;6.610;2022-12-20T08:44:13;9.90;99.90
59098;DHT22;44883;52.760;6.610;2022-12-20T08:46:39;9.90;99.90
59098;DHT22;44883;52.760;6.610;2022-12-20T08:49:05;9.90;99.90
59098;DHT22;44883;52.760;6.610;2022-12-20T08:51:31;9.90;99.90
59098;DHT22;44883;52.760;6.610;2022-12-20T08:53:56;9.90;99.90
59098;DHT22;44883;52.760;6.610;2022-12-20T08:56:22;9.90;99.90
59098;DHT22;44883;52.760;6.610;2022-12-20T08:58:48;9.90;99.90
59098;DHT22;44883;52.760;6.610;2022-12-20T09:01:16;9.90;99.90
59098;DHT22;44883;52.760;6.610;2022-12-20T09:03:43;10.00;99.90
59098;DHT22;44883;52.760;6.610;2022-12-20T09:06:11;10.00;99.90
59098;DHT22;44883;52.760;6.610;2022-12-20T09:08:38;10.00;99.90
59098;DHT22;44883;52.760;6.610;2022-12-20T09:11:14;10.00;99.90
59098;DHT22;44883;52.760;6.610;2022-12-20T09:13:41;10.00;99.90
59098;DHT22;44883;52.760;6.610;2022-12-20T09:16:07;10.00;99.90
59098;DHT22;44883;52.760;6.610;2022-12-20T09:18:33;10.00;99.90
59098;DHT22;44883;52.760;6.610;2022-12-20T09:21:03;10.00;99.90
59098;DHT22;44883;52.760;6.610;2022-12-20T09:23:30;10.00;99.90
59098;DHT22;44883;52.760;6.610;2022-12-20T09:26:04;10.00;99.90
59098;DHT22;44883;52.760;6.610;2022-12-20T09:28:30;10.00;99.90
59098;DHT22;44883;52.760;6.610;2022-12-20T09:31:00;10.00;99.90
59098;DHT22;44883;52.760;6.610;2022-12-20T09:33:27;10.00;99.90
59098;DHT22;44883;52.760;6.610;2022-12-20T09:35:53;9.90;99.90
59098;DHT22;44883;52.760;6.610;2022-12-20T09:38:19;10.00;99.90
59098;DHT22;44883;52.760;6.610;2022-12-20T09:40:50;10.00;99.90
59098;DHT22;44883;52.760;6.610;2022-12-20T09:43:17;10.00;99.90
59098;DHT22;44883;52.760;6.610;2022-12-20T09:45:45;10.00;99.90
59098;DHT22;44883;52.760;6.610;2022-12-20T09:48:22;10.00;99.90
59098;DHT22;44883;52.760;6.610;2022-12-20T09:53:40;10.00;99.90
59098;DHT22;44883;52.760;6.610;2022-12-20T09:59:02;10.10;99.90
59098;DHT22;44883;52.760;6.610;2022-12-20T10:01:33;10.00;99.90
59098;DHT22;44883;52.760;6.610;2022-12-20T10:04:04;10.00;99.90
59098;DHT22;44883;52.760;6.610;2022-12-20T10:06:53;10.00;99.90
59098;DHT22;44883;52.760;6.610;2022-12-20T10:15:17;9.90;99.90
59098;DHT22;44883;52.760;6.610;2022-12-20T10:18:05;9.90;99.90
59098;DHT22;44883;52.760;6.610;2022-12-20T10:23:39;9.90;99.90
59098;DHT22;44883;52.760;6.610;2022-12-20T10:26:11;9.80;99.90
59098;DHT22;44883;52.760;6.610;2022-12-20T10:28:37;9.80;99.90
59098;DHT22;44883;52.760;6.610;2022-12-20T10:31:06;9.80;99.90
59098;DHT22;44883;52.760;6.610;2022-12-20T10:33:33;9.90;99.90
59098;DHT22;44883;52.760;6.610;2022-12-20T10:38:45;9.90;99.90
59098;DHT22;44883;52.760;6.610;2022-12-20T10:42:00;9.90;99.90
59098;DHT22;44883;52.760;6.610;2022-12-20T10:44:02;9.90;99.90
59098;DHT22;44883;52.760;6.610;2022-12-20T10:46:58;9.90;99.90
59098;DHT22;44883;52.760;6.610;2022-12-20T10:49:27;9.90;99.90
59098;DHT22;44883;52.760;6.610;2022-12-20T10:51:55;9.90;99.90
59098;DHT22;44883;52.760;6.610;2022-12-20T10:54:23;9.90;99.90
59098;DHT22;44883;52.760;6.610;2022-12-20T10:56:58;9.90;99.90
59098;DHT22;44883;52.760;6.610;2022-12-20T10:59:37;9.90;99.90
59098;DHT22;44883;52.760;6.610;2022-12-20T11:02:31;9.90;99.90
59098;DHT22;44883;52.760;6.610;2022-12-20T11:07:38;10.00;99.90
59098;DHT22;44883;52.760;6.610;2022-12-20T11:10:28;10.00;99.90
59098;DHT22;44883;52.760;6.610;2022-12-20T11:12:59;10.10;99.90
59098;DHT22;44883;52.760;6.610;2022-12-20T11:15:29;10.10;99.90
59098;DHT22;44883;52.760;6.610;2022-12-20T11:18:04;10.20;99.90
59098;DHT22;44883;52.760;6.610;2022-12-20T11:20:41;10.10;99.90
59098;DHT22;44883;52.760;6.610;2022-12-20T11:23:35;10.10;99.90
59098;DHT22;44883;52.760;6.610;2022-12-20T11:26:11;10.10;99.90
59098;DHT22;44883;52.760;6.610;2022-12-20T11:29:15;10.20;99.90
59098;DHT22;44883;52.760;6.610;2022-12-20T11:37:24;10.10;99.90
59098;DHT22;44883;52.760;6.610;2022-12-20T11:40:17;10.10;99.90
59098;DHT22;44883;52.760;6.610;2022-12-20T11:45:20;10.20;99.90
59098;DHT22;44883;52.760;6.610;2022-12-20T11:48:13;10.20;99.90
59098;DHT22;44883;52.760;6.610;2022-12-20T11:53:42;10.20;99.90
59098;DHT22;44883;52.760;6.610;2022-12-20T11:56:34;10.20;99.90
59098;DHT22;44883;52.760;6.610;2022-12-20T11:59:20;10.10;99.90
59098;DHT22;44883;52.760;6.610;2022-12-20T12:02:02;10.20;99.90
59098;DHT22;44883;52.760;6.610;2022-12-20T12:04:37;10.20;99.90
59098;DHT22;44883;52.760;6.610;2022-12-20T12:12:12;10.20;99.90
59098;DHT22;44883;52.760;6.610;2022-12-20T12:14:57;10.10;99.90
59098;DHT22;44883;52.760;6.610;2022-12-20T12:17:45;10.10;99.90
59098;DHT22;44883;52.760;6.610;2022-12-20T12:23:31;10.10;99.90
59098;DHT22;44883;52.760;6.610;2022-12-20T12:26:13;10.10;99.90
59098;DHT22;44883;52.760;6.610;2022-12-20T12:28:39;10.10;99.90
59098;DHT22;44883;52.760;6.610;2022-12-20T12:31:11;10.10;99.90
59098;DHT22;44883;52.760;6.610;2022-12-20T12:42:22;10.10;99.90
59098;DHT22;44883;52.760;6.610;2022-12-20T12:44:54;10.20;99.90
59098;DHT22;44883;52.760;6.610;2022-12-20T12:47:44;10.20;99.90
59098;DHT22;44883;52.760;6.610;2022-12-20T12:50:25;10.10;99.90
59098;DHT22;44883;52.760;6.610;2022-12-20T12:52:57;10.20;99.90
59098;DHT22;44883;52.760;6.610;2022-12-20T12:55:41;10.20;99.90
59098;DHT22;44883;52.760;6.610;2022-12-20T13:00:59;10.20;99.90
59098;DHT22;44883;52.760;6.610;2022-12-20T13:11:43;10.10;99.90
59098;DHT22;44883;52.760;6.610;2022-12-20T13:17:46;10.10;99.90
59098;DHT22;44883;52.760;6.610;2022-12-20T13:19:51;10.10;99.90
59098;DHT22;44883;52.760;6.610;2022-12-20T13:22:24;10.10;99.90
59098;DHT22;44883;52.760;6.610;2022-12-20T13:25:00;10.10;99.90
59098;DHT22;44883;52.760;6.610;2022-12-20T13:27:39;10.10;99.90
59098;DHT22;44883;52.760;6.610;2022-12-20T13:38:02;10.10;99.90
59098;DHT22;44883;52.760;6.610;2022-12-20T13:40:45;10.10;99.90
59098;DHT22;44883;52.760;6.610;2022-12-20T13:45:46;10.10;99.90
59098;DHT22;44883;52.760;6.610;2022-12-20T13:48:16;10.10;99.90
59098;DHT22;44883;52.760;6.610;2022-12-20T13:50:48;10.10;99.90
59098;DHT22;44883;52.760;6.610;2022-12-20T13:53:18;10.10;99.90
59098;DHT22;44883;52.760;6.610;2022-12-20T13:55:44;10.10;99.90
59098;DHT22;44883;52.760;6.610;2022-12-20T13:58:16;10.10;99.90
59098;DHT22;44883;52.760;6.610;2022-12-20T14:00:43;10.10;99.90
59098;DHT22;44883;52.760;6.610;2022-12-20T14:03:19;10.10;99.90
59098;DHT22;44883;52.760;6.610;2022-12-20T14:05:45;10.10;99.90
59098;DHT22;44883;52.760;6.610;2022-12-20T14:08:16;10.10;99.90
59098;DHT22;44883;52.760;6.610;2022-12-20T14:10:43;10.10;99.90
59098;DHT22;44883;52.760;6.610;2022-12-20T14:13:24;10.10;99.90
59098;DHT22;44883;52.760;6.610;2022-12-20T14:15:51;10.10;99.90
59098;DHT22;44883;52.760;6.610;2022-12-20T14:18:22;10.00;99.90
59098;DHT22;44883;52.760;6.610;2022-12-20T14:20:59;10.10;99.90
59098;DHT22;44883;52.760;6.610;2022-12-20T14:23:41;10.10;99.90
59098;DHT22;44883;52.760;6.610;2022-12-20T14:26:13;10.10;99.90
59098;DHT22;44883;52.760;6.610;2022-12-20T14:28:43;10.10;99.90
59098;DHT22;44883;52.760;6.610;2022-12-20T14:36:48;10.10;99.90
59098;DHT22;44883;52.760;6.610;2022-12-20T14:39:31;10.10;99.90
59098;DHT22;44883;52.760;6.610;2022-12-20T14:41:58;10.10;99.90
59098;DHT22;44883;52.760;6.610;2022-12-20T14:44:26;10.10;99.90
59098;DHT22;44883;52.760;6.610;2022-12-20T14:47:26;10.10;99.90
59098;DHT22;44883;52.760;6.610;2022-12-20T14:49:48;10.10;99.90
59098;DHT22;44883;52.760;6.610;2022-12-20T14:52:33;10.10;99.90
59098;DHT22;44883;52.760;6.610;2022-12-20T14:55:00;10.10;99.90
59098;DHT22;44883;52.760;6.610;2022-12-20T14:57:31;10.10;99.90
59098;DHT22;44883;52.760;6.610;2022-12-20T15:02:57;10.10;99.90
59098;DHT22;44883;52.760;6.610;2022-12-20T15:08:23;10.10;99.90
59098;DHT22;44883;52.760;6.610;2022-12-20T15:13:34;10.10;99.90
59098;DHT22;44883;52.760;6.610;2022-12-20T15:16:13;10.10;99.90
59098;DHT22;44883;52.760;6.610;2022-12-20T15:18:39;10.10;99.90
59098;DHT22;44883;52.760;6.610;2022-12-20T15:21:33;10.10;99.90
59098;DHT22;44883;52.760;6.610;2022-12-20T15:24:02;10.10;99.90
59098;DHT22;44883;52.760;6.610;2022-12-20T15:26:32;10.20;99.90
59098;DHT22;44883;52.760;6.610;2022-12-20T15:28:58;10.20;99.90
59098;DHT22;44883;52.760;6.610;2022-12-20T15:31:25;10.20;99.90
59098;DHT22;44883;52.760;6.610;2022-12-20T15:34:13;10.20;99.90
59098;DHT22;44883;52.760;6.610;2022-12-20T15:36:39;10.20;99.90
59098;DHT22;44883;52.760;6.610;2022-12-20T15:39:05;10.20;99.90
59098;DHT22;44883;52.760;6.610;2022-12-20T15:41:32;10.20;99.90
59098;DHT22;44883;52.760;6.610;2022-12-20T15:44:06;10.20;99.90
59098;DHT22;44883;52.760;6.610;2022-12-20T15:46:35;10.20;99.90
59098;DHT22;44883;52.760;6.610;2022-12-20T15:49:00;10.10;99.90
59098;DHT22;44883;52.760;6.610;2022-12-20T15:51:31;10.10;99.90
59098;DHT22;44883;52.760;6.610;2022-12-20T15:53:58;10.10;99.90
59098;DHT22;44883;52.760;6.610;2022-12-20T15:56:26;10.10;99.90
59098;DHT22;44883;52.760;6.610;2022-12-20T15:58:51;10.20;99.90
59098;DHT22;44883;52.760;6.610;2022-12-20T16:01:30;10.20;99.90
59098;DHT22;44883;52.760;6.610;2022-12-20T16:03:58;10.20;99.90
59098;DHT22;44883;52.760;6.610;2022-12-20T16:06:24;10.10;99.90
59098;DHT22;44883;52.760;6.610;2022-12-20T16:08:49;10.10;99.90
59098;DHT22;44883;52.760;6.610;2022-12-20T16:11:24;10.10;99.90
59098;DHT22;44883;52.760;6.610;2022-12-20T16:13:50;10.10;99.90
59098;DHT22;44883;52.760;6.610;2022-12-20T16:16:18;10.10;99.90
59098;DHT22;44883;52.760;6.610;2022-12-20T16:18:44;10.10;99.90
59098;DHT22;44883;52.760;6.610;2022-12-20T16:21:34;10.10;99.90
59098;DHT22;44883;52.760;6.610;2022-12-20T16:24:01;10.10;99.90
59098;DHT22;44883;52.760;6.610;2022-12-20T16:26:27;10.10;99.90
59098;DHT22;44883;52.760;6.610;2022-12-20T16:28:54;10.10;99.90
59098;DHT22;44883;52.760;6.610;2022-12-20T16:31:28;10.10;99.90
59098;DHT22;44883;52.760;6.610;2022-12-20T16:34:01;10.10;99.90
59098;DHT22;44883;52.760;6.610;2022-12-20T16:36:28;10.10;99.90
59098;DHT22;44883;52.760;6.610;2022-12-20T16:38:54;10.10;99.90
59098;DHT22;44883;52.760;6.610;2022-12-20T16:41:28;10.10;99.90
59098;DHT22;44883;52.760;6.610;2022-12-20T16:43:57;10.10;99.90
59098;DHT22;44883;52.760;6.610;2022-12-20T16:46:26;10.10;99.90
59098;DHT22;44883;52.760;6.610;2022-12-20T16:48:56;10.10;99.90
59098;DHT22;44883;52.760;6.610;2022-12-20T16:51:43;10.10;99.90
59098;DHT22;44883;52.760;6.610;2022-12-20T16:54:20;10.10;99.90
59098;DHT22;44883;52.760;6.610;2022-12-20T16:56:48;10.10;99.90
59098;DHT22;44883;52.760;6.610;2022-12-20T16:59:15;10.20;99.90
59098;DHT22;44883;52.760;6.610;2022-12-20T17:01:41;10.10;99.90
59098;DHT22;44883;52.760;6.610;2022-12-20T17:04:13;10.10;99.90
59098;DHT22;44883;52.760;6.610;2022-12-20T17:06:39;10.10;99.90
59098;DHT22;44883;52.760;6.610;2022-12-20T17:09:06;10.10;99.90
59098;DHT22;44883;52.760;6.610;2022-12-20T17:11:31;10.10;99.90
59098;DHT22;44883;52.760;6.610;2022-12-20T17:13:58;10.20;99.90
59098;DHT22;44883;52.760;6.610;2022-12-20T17:16:25;10.20;99.90
59098;DHT22;44883;52.760;6.610;2022-12-20T17:18:52;10.10;99.90
59098;DHT22;44883;52.760;6.610;2022-12-20T17:23:45;10.10;99.90
59098;DHT22;44883;52.760;6.610;2022-12-20T17:26:14;10.10;99.90
59098;DHT22;44883;52.760;6.610;2022-12-20T17:28:39;10.10;99.90
59098;DHT22;44883;52.760;6.610;2022-12-20T17:31:25;10.10;99.90
59098;DHT22;44883;52.760;6.610;2022-12-20T17:33:51;10.10;99.90
59098;DHT22;44883;52.760;6.610;2022-12-20T17:36:18;10.10;99.90
59098;DHT22;44883;52.760;6.610;2022-12-20T17:38:43;10.10;99.90
59098;DHT22;44883;52.760;6.610;2022-12-20T17:43:45;10.10;99.90